sensor_id;sensor_type;location;lat;lon;timestamp;P1;durP1;ratioP1;P2;durP2;ratioP2
15114;SDS011;7658;51.456;7.622;2023-03-23T00:01:04;10.18;;;4.72;;
15114;SDS011;7658;51.456;7.622;2023-03-23T00:03:30;5.45;;;4.00;;
15114;SDS011;7658;51.456;7.622;2023-03-23T00:05:59;9.55;;;3.97;;
15114;SDS011;7658;51.456;7.622;2023-03-23T00:08:31;9.25;;;4.43;;
15114;SDS011;7658;51.456;7.622;2023-03-23T00:10:58;4.40;;;4.00;;
15114;SDS011;7658;51.456;7.622;2023-03-23T00:13:26;6.28;;;3.83;;
15114;SDS011;7658;51.456;7.622;2023-03-23T00:15:53;6.70;;;4.43;;
15114;SDS011;7658;51.456;7.622;2023-03-23T00:18:19;4.90;;;4.18;;
15114;SDS011;7658;51.456;7.622;2023-03-23T00:20:52;6.50;;;4.40;;
15114;SDS011;7658;51.456;7.622;2023-03-23T00:23:20;9.65;;;4.28;;
15114;SDS011;7658;51.456;7.622;2023-03-23T00:25:51;5.53;;;4.20;;
15114;SDS011;7658;51.456;7.622;2023-03-23T00:28:23;6.22;;;4.07;;
15114;SDS011;7658;51.456;7.622;2023-03-23T00:31:00;7.63;;;4.63;;
15114;SDS011;7658;51.456;7.622;2023-03-23T00:33:32;4.80;;;4.35;;
15114;SDS011;7658;51.456;7.622;2023-03-23T00:36:03;6.80;;;3.92;;
15114;SDS011;7658;51.456;7.622;2023-03-23T00:38:30;6.95;;;4.32;;
15114;SDS011;7658;51.456;7.622;2023-03-23T00:40:56;5.97;;;4.30;;
15114;SDS011;7658;51.456;7.622;2023-03-23T00:43:22;7.47;;;4.47;;
15114;SDS011;7658;51.456;7.622;2023-03-23T00:45:54;5.03;;;4.50;;
15114;SDS011;7658;51.456;7.622;2023-03-23T00:48:26;5.00;;;4.50;;
15114;SDS011;7658;51.456;7.622;2023-03-23T00:50:54;5.03;;;4.05;;
15114;SDS011;7658;51.456;7.622;2023-03-23T00:53:21;6.85;;;4.38;;
15114;SDS011;7658;51.456;7.622;2023-03-23T00:55:48;6.97;;;4.60;;
15114;SDS011;7658;51.456;7.622;2023-03-23T00:58:14;4.88;;;4.38;;
15114;SDS011;7658;51.456;7.622;2023-03-23T01:00:40;6.65;;;4.53;;
15114;SDS011;7658;51.456;7.622;2023-03-23T01:03:07;6.60;;;4.25;;
15114;SDS011;7658;51.456;7.622;2023-03-23T01:05:37;5.32;;;4.30;;
15114;SDS011;7658;51.456;7.622;2023-03-23T01:08:04;8.35;;;4.43;;
15114;SDS011;7658;51.456;7.622;2023-03-23T01:10:31;6.13;;;4.20;;
15114;SDS011;7658;51.456;7.622;2023-03-23T01:12:58;5.78;;;4.38;;
15114;SDS011;7658;51.456;7.622;2023-03-23T01:15:28;5.38;;;4.00;;
15114;SDS011;7658;51.456;7.622;2023-03-23T01:17:54;5.55;;;3.90;;
15114;SDS011;7658;51.456;7.622;2023-03-23T01:20:20;5.88;;;4.30;;
15114;SDS011;7658;51.456;7.622;2023-03-23T01:22:47;6.47;;;4.22;;
15114;SDS011;7658;51.456;7.622;2023-03-23T01:25:13;5.88;;;4.07;;
15114;SDS011;7658;51.456;7.622;2023-03-23T01:27:39;5.30;;;3.92;;
15114;SDS011;7658;51.456;7.622;2023-03-23T01:30:06;4.50;;;4.07;;
15114;SDS011;7658;51.456;7.622;2023-03-23T01:32:33;4.82;;;3.90;;
15114;SDS011;7658;51.456;7.622;2023-03-23T01:34:59;5.88;;;4.38;;
15114;SDS011;7658;51.456;7.622;2023-03-23T01:37:25;5.28;;;4.43;;
15114;SDS011;7658;51.456;7.622;2023-03-23T01:39:57;4.32;;;3.83;;
15114;SDS011;7658;51.456;7.622;2023-03-23T01:42:30;4.20;;;3.80;;
15114;SDS011;7658;51.456;7.622;2023-03-23T01:48:01;6.80;;;3.83;;
15114;SDS011;7658;51.456;7.622;2023-03-23T01:50:48;4.70;;;3.92;;
15114;SDS011;7658;51.456;7.622;2023-03-23T01:53:18;4.15;;;3.55;;
15114;SDS011;7658;51.456;7.622;2023-03-23T01:55:46;7.13;;;4.30;;
15114;SDS011;7658;51.456;7.622;2023-03-23T01:58:16;5.32;;;4.18;;
15114;SDS011;7658;51.456;7.622;2023-03-23T02:00:46;4.78;;;4.00;;
15114;SDS011;7658;51.456;7.622;2023-03-23T02:03:13;6.47;;;4.75;;
15114;SDS011;7658;51.456;7.622;2023-03-23T02:05:41;4.30;;;3.90;;
15114;SDS011;7658;51.456;7.622;2023-03-23T02:08:08;7.78;;;4.68;;
15114;SDS011;7658;51.456;7.622;2023-03-23T02:10:36;4.88;;;3.70;;
15114;SDS011;7658;51.456;7.622;2023-03-23T02:13:03;5.00;;;4.45;;
15114;SDS011;7658;51.456;7.622;2023-03-23T02:37:02;10.85;;;5.60;;
15114;SDS011;7658;51.456;7.622;2023-03-23T02:39:45;7.93;;;4.57;;
15114;SDS011;7658;51.456;7.622;2023-03-23T02:42:17;6.47;;;4.55;;
15114;SDS011;7658;51.456;7.622;2023-03-23T02:44:53;4.90;;;4.50;;
15114;SDS011;7658;51.456;7.622;2023-03-23T02:47:23;6.10;;;4.63;;
15114;SDS011;7658;51.456;7.622;2023-03-23T02:49:51;5.80;;;4.35;;
15114;SDS011;7658;51.456;7.622;2023-03-23T02:52:20;4.80;;;4.30;;
15114;SDS011;7658;51.456;7.622;2023-03-23T02:54:57;5.30;;;4.43;;
15114;SDS011;7658;51.456;7.622;2023-03-23T02:57:24;6.53;;;4.35;;
15114;SDS011;7658;51.456;7.622;2023-03-23T02:59:52;5.23;;;4.73;;
15114;SDS011;7658;51.456;7.622;2023-03-23T03:02:21;4.77;;;4.10;;
15114;SDS011;7658;51.456;7.622;2023-03-23T03:10:19;4.70;;;4.18;;
15114;SDS011;7658;51.456;7.622;2023-03-23T03:15:26;5.03;;;4.10;;
15114;SDS011;7658;51.456;7.622;2023-03-23T03:20:37;4.55;;;4.15;;
15114;SDS011;7658;51.456;7.622;2023-03-23T03:23:08;4.70;;;4.13;;
15114;SDS011;7658;51.456;7.622;2023-03-23T03:25:38;4.60;;;4.05;;
15114;SDS011;7658;51.456;7.622;2023-03-23T03:28:06;7.95;;;4.55;;
15114;SDS011;7658;51.456;7.622;2023-03-23T03:30:33;5.15;;;4.10;;
15114;SDS011;7658;51.456;7.622;2023-03-23T03:33:00;6.35;;;4.07;;
15114;SDS011;7658;51.456;7.622;2023-03-23T03:35:28;6.22;;;4.50;;
15114;SDS011;7658;51.456;7.622;2023-03-23T03:37:55;5.03;;;4.53;;
15114;SDS011;7658;51.456;7.622;2023-03-23T03:40:23;5.70;;;4.25;;
15114;SDS011;7658;51.456;7.622;2023-03-23T03:42:49;6.60;;;4.35;;
15114;SDS011;7658;51.456;7.622;2023-03-23T03:45:18;5.07;;;4.28;;
15114;SDS011;7658;51.456;7.622;2023-03-23T03:47:45;7.03;;;4.40;;
15114;SDS011;7658;51.456;7.622;2023-03-23T03:50:11;6.40;;;4.15;;
15114;SDS011;7658;51.456;7.622;2023-03-23T03:52:37;5.88;;;4.00;;
15114;SDS011;7658;51.456;7.622;2023-03-23T03:55:05;4.20;;;3.80;;
15114;SDS011;7658;51.456;7.622;2023-03-23T03:57:32;4.28;;;3.72;;
15114;SDS011;7658;51.456;7.622;2023-03-23T03:59:58;5.10;;;3.90;;
15114;SDS011;7658;51.456;7.622;2023-03-23T04:02:24;4.22;;;3.92;;
15114;SDS011;7658;51.456;7.622;2023-03-23T04:04:50;5.38;;;3.92;;
15114;SDS011;7658;51.456;7.622;2023-03-23T04:07:17;5.10;;;3.78;;
15114;SDS011;7658;51.456;7.622;2023-03-23T04:09:44;4.53;;;3.97;;
15114;SDS011;7658;51.456;7.622;2023-03-23T04:12:14;3.90;;;3.58;;
15114;SDS011;7658;51.456;7.622;2023-03-23T04:14:40;5.18;;;4.15;;
15114;SDS011;7658;51.456;7.622;2023-03-23T04:17:06;4.67;;;3.93;;
15114;SDS011;7658;51.456;7.622;2023-03-23T04:19:34;3.90;;;3.60;;
15114;SDS011;7658;51.456;7.622;2023-03-23T04:22:01;3.75;;;3.45;;
15114;SDS011;7658;51.456;7.622;2023-03-23T04:24:28;4.10;;;3.50;;
15114;SDS011;7658;51.456;7.622;2023-03-23T04:26:57;4.13;;;3.83;;
15114;SDS011;7658;51.456;7.622;2023-03-23T04:29:24;4.47;;;3.72;;
15114;SDS011;7658;51.456;7.622;2023-03-23T04:31:50;3.97;;;3.65;;
15114;SDS011;7658;51.456;7.622;2023-03-23T04:34:17;3.97;;;3.58;;
15114;SDS011;7658;51.456;7.622;2023-03-23T04:36:44;4.63;;;3.83;;
15114;SDS011;7658;51.456;7.622;2023-03-23T04:39:11;4.22;;;3.85;;
15114;SDS011;7658;51.456;7.622;2023-03-23T04:41:38;4.82;;;3.42;;
15114;SDS011;7658;51.456;7.622;2023-03-23T04:44:05;3.78;;;3.47;;
15114;SDS011;7658;51.456;7.622;2023-03-23T04:46:32;5.53;;;3.70;;
15114;SDS011;7658;51.456;7.622;2023-03-23T04:49:01;6.20;;;3.60;;
15114;SDS011;7658;51.456;7.622;2023-03-23T04:51:28;4.20;;;3.80;;
15114;SDS011;7658;51.456;7.622;2023-03-23T04:53:54;5.53;;;3.58;;
15114;SDS011;7658;51.456;7.622;2023-03-23T04:56:21;4.57;;;4.18;;
15114;SDS011;7658;51.456;7.622;2023-03-23T04:58:48;4.15;;;3.65;;
15114;SDS011;7658;51.456;7.622;2023-03-23T05:01:14;4.18;;;3.78;;
15114;SDS011;7658;51.456;7.622;2023-03-23T05:03:42;3.90;;;3.60;;
15114;SDS011;7658;51.456;7.622;2023-03-23T05:06:09;5.03;;;3.55;;
15114;SDS011;7658;51.456;7.622;2023-03-23T05:08:35;4.82;;;3.55;;
15114;SDS011;7658;51.456;7.622;2023-03-23T05:11:05;4.05;;;3.67;;
15114;SDS011;7658;51.456;7.622;2023-03-23T05:13:31;3.90;;;3.60;;
15114;SDS011;7658;51.456;7.622;2023-03-23T05:15:57;5.40;;;4.03;;
15114;SDS011;7658;51.456;7.622;2023-03-23T05:18:27;6.70;;;3.80;;
15114;SDS011;7658;51.456;7.622;2023-03-23T05:20:54;5.30;;;3.65;;
15114;SDS011;7658;51.456;7.622;2023-03-23T05:23:19;4.15;;;3.60;;
15114;SDS011;7658;51.456;7.622;2023-03-23T05:25:54;3.92;;;3.63;;
15114;SDS011;7658;51.456;7.622;2023-03-23T05:28:21;4.13;;;3.72;;
15114;SDS011;7658;51.456;7.622;2023-03-23T05:30:47;4.65;;;3.60;;
15114;SDS011;7658;51.456;7.622;2023-03-23T05:33:13;4.40;;;4.00;;
15114;SDS011;7658;51.456;7.622;2023-03-23T05:35:40;4.05;;;3.65;;
15114;SDS011;7658;51.456;7.622;2023-03-23T05:38:05;3.70;;;3.40;;
15114;SDS011;7658;51.456;7.622;2023-03-23T05:40:31;5.22;;;4.00;;
15114;SDS011;7658;51.456;7.622;2023-03-23T05:42:57;4.30;;;3.58;;
15114;SDS011;7658;51.456;7.622;2023-03-23T05:45:24;4.95;;;4.15;;
15114;SDS011;7658;51.456;7.622;2023-03-23T05:47:51;3.65;;;3.35;;
15114;SDS011;7658;51.456;7.622;2023-03-23T05:50:17;4.95;;;4.00;;
15114;SDS011;7658;51.456;7.622;2023-03-23T05:52:43;3.92;;;3.55;;
15114;SDS011;7658;51.456;7.622;2023-03-23T05:55:09;4.32;;;3.78;;
15114;SDS011;7658;51.456;7.622;2023-03-23T05:57:36;4.68;;;4.10;;
15114;SDS011;7658;51.456;7.622;2023-03-23T06:00:03;4.13;;;3.72;;
15114;SDS011;7658;51.456;7.622;2023-03-23T06:02:39;5.82;;;4.53;;
15114;SDS011;7658;51.456;7.622;2023-03-23T06:05:09;4.03;;;3.63;;
15114;SDS011;7658;51.456;7.622;2023-03-23T06:07:35;4.22;;;3.78;;
15114;SDS011;7658;51.456;7.622;2023-03-23T06:10:03;5.82;;;4.18;;
15114;SDS011;7658;51.456;7.622;2023-03-23T06:12:31;4.03;;;3.72;;
15114;SDS011;7658;51.456;7.622;2023-03-23T06:14:57;7.60;;;3.92;;
15114;SDS011;7658;51.456;7.622;2023-03-23T06:17:24;5.68;;;3.70;;
15114;SDS011;7658;51.456;7.622;2023-03-23T06:19:50;5.40;;;4.00;;
15114;SDS011;7658;51.456;7.622;2023-03-23T06:22:16;4.25;;;3.63;;
15114;SDS011;7658;51.456;7.622;2023-03-23T06:24:42;4.63;;;3.92;;
15114;SDS011;7658;51.456;7.622;2023-03-23T06:27:09;5.22;;;3.85;;
15114;SDS011;7658;51.456;7.622;2023-03-23T06:29:35;4.43;;;3.80;;
15114;SDS011;7658;51.456;7.622;2023-03-23T06:32:02;6.63;;;4.20;;
15114;SDS011;7658;51.456;7.622;2023-03-23T06:34:29;4.70;;;4.10;;
15114;SDS011;7658;51.456;7.622;2023-03-23T06:36:57;4.25;;;3.80;;
15114;SDS011;7658;51.456;7.622;2023-03-23T06:39:23;4.97;;;3.63;;
15114;SDS011;7658;51.456;7.622;2023-03-23T06:41:49;4.00;;;3.70;;
15114;SDS011;7658;51.456;7.622;2023-03-23T06:44:15;4.65;;;4.25;;
15114;SDS011;7658;51.456;7.622;2023-03-23T06:46:41;4.53;;;4.03;;
15114;SDS011;7658;51.456;7.622;2023-03-23T06:49:07;4.13;;;3.67;;
15114;SDS011;7658;51.456;7.622;2023-03-23T06:51:33;4.70;;;3.90;;
15114;SDS011;7658;51.456;7.622;2023-03-23T06:54:00;8.27;;;4.47;;
15114;SDS011;7658;51.456;7.622;2023-03-23T06:56:26;4.60;;;4.20;;
15114;SDS011;7658;51.456;7.622;2023-03-23T06:58:52;6.60;;;4.05;;
15114;SDS011;7658;51.456;7.622;2023-03-23T07:01:19;4.07;;;3.65;;
15114;SDS011;7658;51.456;7.622;2023-03-23T07:03:45;4.15;;;3.80;;
15114;SDS011;7658;51.456;7.622;2023-03-23T07:06:11;5.32;;;3.95;;
15114;SDS011;7658;51.456;7.622;2023-03-23T07:08:37;5.13;;;4.00;;
15114;SDS011;7658;51.456;7.622;2023-03-23T07:11:03;7.22;;;4.05;;
15114;SDS011;7658;51.456;7.622;2023-03-23T07:13:29;5.53;;;3.88;;
15114;SDS011;7658;51.456;7.622;2023-03-23T07:15:55;5.95;;;3.70;;
15114;SDS011;7658;51.456;7.622;2023-03-23T07:18:21;5.85;;;4.25;;
15114;SDS011;7658;51.456;7.622;2023-03-23T07:20:47;4.80;;;4.22;;
15114;SDS011;7658;51.456;7.622;2023-03-23T07:23:14;4.20;;;3.70;;
15114;SDS011;7658;51.456;7.622;2023-03-23T07:25:40;4.78;;;4.15;;
15114;SDS011;7658;51.456;7.622;2023-03-23T07:28:06;7.70;;;4.53;;
15114;SDS011;7658;51.456;7.622;2023-03-23T07:30:32;6.63;;;3.72;;
15114;SDS011;7658;51.456;7.622;2023-03-23T07:32:57;4.60;;;3.72;;
15114;SDS011;7658;51.456;7.622;2023-03-23T07:35:23;7.32;;;4.38;;
15114;SDS011;7658;51.456;7.622;2023-03-23T07:37:50;5.47;;;3.88;;
15114;SDS011;7658;51.456;7.622;2023-03-23T07:40:17;5.30;;;4.20;;
15114;SDS011;7658;51.456;7.622;2023-03-23T07:42:44;5.28;;;3.78;;
15114;SDS011;7658;51.456;7.622;2023-03-23T07:45:14;6.15;;;3.85;;
15114;SDS011;7658;51.456;7.622;2023-03-23T07:47:40;7.07;;;3.95;;
15114;SDS011;7658;51.456;7.622;2023-03-23T07:50:07;6.90;;;4.28;;
15114;SDS011;7658;51.456;7.622;2023-03-23T07:52:34;5.10;;;3.97;;
15114;SDS011;7658;51.456;7.622;2023-03-23T07:55:01;6.90;;;3.78;;
15114;SDS011;7658;51.456;7.622;2023-03-23T07:57:28;4.82;;;3.85;;
15114;SDS011;7658;51.456;7.622;2023-03-23T07:59:55;6.72;;;4.00;;
15114;SDS011;7658;51.456;7.622;2023-03-23T08:02:22;5.10;;;4.07;;
15114;SDS011;7658;51.456;7.622;2023-03-23T08:04:48;4.70;;;3.80;;
15114;SDS011;7658;51.456;7.622;2023-03-23T08:07:16;5.68;;;4.15;;
15114;SDS011;7658;51.456;7.622;2023-03-23T08:09:44;6.80;;;3.83;;
15114;SDS011;7658;51.456;7.622;2023-03-23T08:12:10;5.95;;;3.67;;
15114;SDS011;7658;51.456;7.622;2023-03-23T08:14:36;11.13;;;3.88;;
15114;SDS011;7658;51.456;7.622;2023-03-23T08:17:02;6.70;;;3.50;;
15114;SDS011;7658;51.456;7.622;2023-03-23T08:19:27;4.70;;;3.90;;
15114;SDS011;7658;51.456;7.622;2023-03-23T08:21:53;7.35;;;3.67;;
15114;SDS011;7658;51.456;7.622;2023-03-23T08:24:19;9.95;;;3.97;;
15114;SDS011;7658;51.456;7.622;2023-03-23T08:26:45;5.50;;;3.55;;
15114;SDS011;7658;51.456;7.622;2023-03-23T08:29:11;7.22;;;3.92;;
15114;SDS011;7658;51.456;7.622;2023-03-23T08:31:38;5.60;;;3.80;;
15114;SDS011;7658;51.456;7.622;2023-03-23T08:34:04;6.45;;;3.58;;
15114;SDS011;7658;51.456;7.622;2023-03-23T08:36:34;4.68;;;3.35;;
15114;SDS011;7658;51.456;7.622;2023-03-23T08:39:03;5.32;;;3.53;;
15114;SDS011;7658;51.456;7.622;2023-03-23T08:41:30;9.32;;;4.05;;
15114;SDS011;7658;51.456;7.622;2023-03-23T08:43:57;4.03;;;3.50;;
15114;SDS011;7658;51.456;7.622;2023-03-23T08:46:23;4.15;;;3.45;;
15114;SDS011;7658;51.456;7.622;2023-03-23T08:48:48;4.32;;;3.25;;
15114;SDS011;7658;51.456;7.622;2023-03-23T08:51:14;5.38;;;3.50;;
15114;SDS011;7658;51.456;7.622;2023-03-23T08:53:40;5.95;;;3.60;;
15114;SDS011;7658;51.456;7.622;2023-03-23T08:56:08;4.32;;;3.60;;
15114;SDS011;7658;51.456;7.622;2023-03-23T08:58:35;6.38;;;3.65;;
15114;SDS011;7658;51.456;7.622;2023-03-23T09:01:03;3.90;;;3.38;;
15114;SDS011;7658;51.456;7.622;2023-03-23T09:03:31;4.05;;;3.15;;
15114;SDS011;7658;51.456;7.622;2023-03-23T09:05:59;4.32;;;3.50;;
15114;SDS011;7658;51.456;7.622;2023-03-23T09:08:27;3.75;;;3.33;;
15114;SDS011;7658;51.456;7.622;2023-03-23T09:10:54;6.13;;;3.58;;
15114;SDS011;7658;51.456;7.622;2023-03-23T09:13:32;7.63;;;3.53;;
15114;SDS011;7658;51.456;7.622;2023-03-23T09:15:58;6.68;;;3.63;;
15114;SDS011;7658;51.456;7.622;2023-03-23T09:18:24;4.38;;;3.33;;
15114;SDS011;7658;51.456;7.622;2023-03-23T09:20:51;4.10;;;3.00;;
15114;SDS011;7658;51.456;7.622;2023-03-23T09:23:17;3.65;;;3.20;;
15114;SDS011;7658;51.456;7.622;2023-03-23T09:25:43;4.18;;;3.60;;
15114;SDS011;7658;51.456;7.622;2023-03-23T09:28:09;5.63;;;3.75;;
15114;SDS011;7658;51.456;7.622;2023-03-23T09:30:36;6.30;;;3.85;;
15114;SDS011;7658;51.456;7.622;2023-03-23T09:33:04;7.28;;;3.83;;
15114;SDS011;7658;51.456;7.622;2023-03-23T09:35:31;5.97;;;3.83;;
15114;SDS011;7658;51.456;7.622;2023-03-23T09:37:59;4.93;;;4.10;;
15114;SDS011;7658;51.456;7.622;2023-03-23T09:46:12;9.45;;;3.78;;
15114;SDS011;7658;51.456;7.622;2023-03-23T09:51:51;4.78;;;3.53;;
15114;SDS011;7658;51.456;7.622;2023-03-23T09:54:29;4.78;;;3.25;;
15114;SDS011;7658;51.456;7.622;2023-03-23T09:57:00;5.65;;;3.80;;
15114;SDS011;7658;51.456;7.622;2023-03-23T09:59:29;6.72;;;3.90;;
15114;SDS011;7658;51.456;7.622;2023-03-23T10:02:19;4.07;;;2.95;;
15114;SDS011;7658;51.456;7.622;2023-03-23T10:04:48;6.32;;;3.90;;
15114;SDS011;7658;51.456;7.622;2023-03-23T10:07:21;8.20;;;3.60;;
15114;SDS011;7658;51.456;7.622;2023-03-23T10:09:55;7.40;;;3.63;;
15114;SDS011;7658;51.456;7.622;2023-03-23T10:15:20;4.90;;;3.80;;
15114;SDS011;7658;51.456;7.622;2023-03-23T10:18:03;8.45;;;3.65;;
15114;SDS011;7658;51.456;7.622;2023-03-23T10:25:58;6.72;;;3.72;;
15114;SDS011;7658;51.456;7.622;2023-03-23T10:31:20;8.50;;;3.63;;
15114;SDS011;7658;51.456;7.622;2023-03-23T10:33:57;9.90;;;4.05;;
15114;SDS011;7658;51.456;7.622;2023-03-23T10:36:38;9.25;;;4.30;;
15114;SDS011;7658;51.456;7.622;2023-03-23T10:39:18;10.23;;;4.68;;
15114;SDS011;7658;51.456;7.622;2023-03-23T10:41:47;8.48;;;4.00;;
15114;SDS011;7658;51.456;7.622;2023-03-23T10:46:49;9.43;;;4.88;;
15114;SDS011;7658;51.456;7.622;2023-03-23T10:49:23;7.35;;;3.83;;
15114;SDS011;7658;51.456;7.622;2023-03-23T10:54:38;11.18;;;3.85;;
15114;SDS011;7658;51.456;7.622;2023-03-23T11:02:42;9.60;;;4.40;;
15114;SDS011;7658;51.456;7.622;2023-03-23T11:05:34;6.28;;;4.55;;
15114;SDS011;7658;51.456;7.622;2023-03-23T11:08:10;7.68;;;3.85;;
15114;SDS011;7658;51.456;7.622;2023-03-23T11:10:47;6.85;;;4.63;;
15114;SDS011;7658;51.456;7.622;2023-03-23T11:13:16;4.57;;;3.33;;
15114;SDS011;7658;51.456;7.622;2023-03-23T11:15:44;3.28;;;3.08;;
15114;SDS011;7658;51.456;7.622;2023-03-23T11:18:22;3.40;;;2.90;;
15114;SDS011;7658;51.456;7.622;2023-03-23T11:21:01;4.63;;;3.40;;
15114;SDS011;7658;51.456;7.622;2023-03-23T11:23:29;6.32;;;3.22;;
15114;SDS011;7658;51.456;7.622;2023-03-23T11:26:08;9.02;;;5.88;;
15114;SDS011;7658;51.456;7.622;2023-03-23T11:31:18;5.88;;;4.43;;
15114;SDS011;7658;51.456;7.622;2023-03-23T11:33:52;7.28;;;5.70;;
15114;SDS011;7658;51.456;7.622;2023-03-23T11:36:28;6.90;;;6.03;;
15114;SDS011;7658;51.456;7.622;2023-03-23T11:39:03;8.87;;;6.90;;
15114;SDS011;7658;51.456;7.622;2023-03-23T11:41:47;9.00;;;7.60;;
15114;SDS011;7658;51.456;7.622;2023-03-23T11:44:13;8.82;;;7.03;;
15114;SDS011;7658;51.456;7.622;2023-03-23T11:55:25;10.40;;;7.57;;
15114;SDS011;7658;51.456;7.622;2023-03-23T11:57:55;13.70;;;9.00;;
15114;SDS011;7658;51.456;7.622;2023-03-23T12:00:25;9.53;;;7.87;;
15114;SDS011;7658;51.456;7.622;2023-03-23T12:02:54;11.00;;;8.63;;
15114;SDS011;7658;51.456;7.622;2023-03-23T12:05:42;12.10;;;7.90;;
15114;SDS011;7658;51.456;7.622;2023-03-23T12:13:39;9.07;;;7.00;;
15114;SDS011;7658;51.456;7.622;2023-03-23T12:19:21;7.03;;;6.33;;
15114;SDS011;7658;51.456;7.622;2023-03-23T12:36:48;5.10;;;4.60;;
15114;SDS011;7658;51.456;7.622;2023-03-23T12:45:11;8.43;;;5.30;;
15114;SDS011;7658;51.456;7.622;2023-03-23T12:47:57;7.03;;;5.50;;
15114;SDS011;7658;51.456;7.622;2023-03-23T12:50:34;6.43;;;5.40;;
15114;SDS011;7658;51.456;7.622;2023-03-23T12:56:34;8.80;;;5.63;;
15114;SDS011;7658;51.456;7.622;2023-03-23T13:01:59;8.80;;;6.20;;
15114;SDS011;7658;51.456;7.622;2023-03-23T13:04:39;6.78;;;5.55;;
15114;SDS011;7658;51.456;7.622;2023-03-23T13:07:24;6.90;;;6.20;;
15114;SDS011;7658;51.456;7.622;2023-03-23T13:09:58;7.35;;;5.80;;
15114;SDS011;7658;51.456;7.622;2023-03-23T13:12:40;7.47;;;6.27;;
15114;SDS011;7658;51.456;7.622;2023-03-23T13:21:11;10.73;;;7.20;;
15114;SDS011;7658;51.456;7.622;2023-03-23T13:23:43;12.17;;;7.63;;
15114;SDS011;7658;51.456;7.622;2023-03-23T13:26:17;10.57;;;7.28;;
15114;SDS011;7658;51.456;7.622;2023-03-23T13:29:00;12.55;;;8.95;;
15114;SDS011;7658;51.456;7.622;2023-03-23T13:31:44;12.27;;;7.90;;
15114;SDS011;7658;51.456;7.622;2023-03-23T13:34:15;10.57;;;8.03;;
15114;SDS011;7658;51.456;7.622;2023-03-23T13:39:34;9.18;;;7.38;;
15114;SDS011;7658;51.456;7.622;2023-03-23T13:47:46;10.20;;;8.07;;
15114;SDS011;7658;51.456;7.622;2023-03-23T13:57:49;14.82;;;9.20;;
15114;SDS011;7658;51.456;7.622;2023-03-23T14:00:25;15.93;;;9.43;;
15114;SDS011;7658;51.456;7.622;2023-03-23T14:08:14;15.90;;;10.45;;
15114;SDS011;7658;51.456;7.622;2023-03-23T14:11:19;16.02;;;10.93;;
15114;SDS011;7658;51.456;7.622;2023-03-23T14:16:32;17.27;;;12.00;;
15114;SDS011;7658;51.456;7.622;2023-03-23T14:19:19;17.50;;;11.93;;
15114;SDS011;7658;51.456;7.622;2023-03-23T14:21:55;16.02;;;11.20;;
15114;SDS011;7658;51.456;7.622;2023-03-23T14:24:26;19.80;;;12.45;;
15114;SDS011;7658;51.456;7.622;2023-03-23T14:27:14;19.40;;;13.63;;
15114;SDS011;7658;51.456;7.622;2023-03-23T14:29:42;18.80;;;14.02;;
15114;SDS011;7658;51.456;7.622;2023-03-23T14:32:12;23.17;;;14.45;;
15114;SDS011;7658;51.456;7.622;2023-03-23T14:34:42;21.33;;;14.27;;
15114;SDS011;7658;51.456;7.622;2023-03-23T14:37:14;27.20;;;15.63;;
15114;SDS011;7658;51.456;7.622;2023-03-23T14:39:44;22.55;;;15.05;;
15114;SDS011;7658;51.456;7.622;2023-03-23T14:42:19;25.05;;;14.38;;
15114;SDS011;7658;51.456;7.622;2023-03-23T14:44:53;24.45;;;15.35;;
15114;SDS011;7658;51.456;7.622;2023-03-23T14:47:26;22.08;;;15.23;;
15114;SDS011;7658;51.456;7.622;2023-03-23T14:50:02;23.58;;;15.40;;
15114;SDS011;7658;51.456;7.622;2023-03-23T14:52:38;28.27;;;15.82;;
15114;SDS011;7658;51.456;7.622;2023-03-23T14:55:22;26.90;;;16.10;;
15114;SDS011;7658;51.456;7.622;2023-03-23T14:57:49;26.48;;;16.63;;
15114;SDS011;7658;51.456;7.622;2023-03-23T15:00:21;29.88;;;15.60;;
15114;SDS011;7658;51.456;7.622;2023-03-23T15:02:54;28.73;;;16.58;;
15114;SDS011;7658;51.456;7.622;2023-03-23T15:05:27;26.67;;;15.60;;
15114;SDS011;7658;51.456;7.622;2023-03-23T15:08:05;27.25;;;15.57;;
15114;SDS011;7658;51.456;7.622;2023-03-23T15:10:36;21.80;;;13.95;;
15114;SDS011;7658;51.456;7.622;2023-03-23T15:13:01;22.02;;;14.27;;
15114;SDS011;7658;51.456;7.622;2023-03-23T15:15:31;19.10;;;12.32;;
15114;SDS011;7658;51.456;7.622;2023-03-23T15:18:00;19.40;;;11.40;;
15114;SDS011;7658;51.456;7.622;2023-03-23T15:23:14;11.70;;;7.75;;
15114;SDS011;7658;51.456;7.622;2023-03-23T15:25:53;13.15;;;7.47;;
15114;SDS011;7658;51.456;7.622;2023-03-23T15:28:21;9.98;;;6.18;;
15114;SDS011;7658;51.456;7.622;2023-03-23T15:31:01;12.55;;;5.40;;
15114;SDS011;7658;51.456;7.622;2023-03-23T15:33:38;7.35;;;5.00;;
15114;SDS011;7658;51.456;7.622;2023-03-23T15:36:14;6.53;;;4.60;;
15114;SDS011;7658;51.456;7.622;2023-03-23T15:38:45;12.15;;;4.93;;
15114;SDS011;7658;51.456;7.622;2023-03-23T15:41:27;8.43;;;4.82;;
15114;SDS011;7658;51.456;7.622;2023-03-23T15:44:08;11.95;;;4.65;;
15114;SDS011;7658;51.456;7.622;2023-03-23T15:46:49;8.77;;;4.15;;
15114;SDS011;7658;51.456;7.622;2023-03-23T15:49:17;6.90;;;4.10;;
15114;SDS011;7658;51.456;7.622;2023-03-23T15:51:43;8.57;;;4.22;;
15114;SDS011;7658;51.456;7.622;2023-03-23T15:54:12;11.43;;;5.03;;
15114;SDS011;7658;51.456;7.622;2023-03-23T15:56:39;4.72;;;4.18;;
15114;SDS011;7658;51.456;7.622;2023-03-23T15:59:07;10.10;;;4.22;;
15114;SDS011;7658;51.456;7.622;2023-03-23T16:01:33;6.45;;;4.10;;
15114;SDS011;7658;51.456;7.622;2023-03-23T16:04:10;6.57;;;4.13;;
15114;SDS011;7658;51.456;7.622;2023-03-23T16:06:40;4.80;;;3.47;;
15114;SDS011;7658;51.456;7.622;2023-03-23T16:09:07;6.60;;;4.07;;
15114;SDS011;7658;51.456;7.622;2023-03-23T16:11:37;4.93;;;3.70;;
15114;SDS011;7658;51.456;7.622;2023-03-23T16:14:03;6.50;;;3.60;;
15114;SDS011;7658;51.456;7.622;2023-03-23T16:16:45;5.50;;;3.80;;
15114;SDS011;7658;51.456;7.622;2023-03-23T16:19:13;11.00;;;4.60;;
15114;SDS011;7658;51.456;7.622;2023-03-23T16:21:40;6.22;;;4.38;;
15114;SDS011;7658;51.456;7.622;2023-03-23T16:24:07;6.88;;;4.93;;
15114;SDS011;7658;51.456;7.622;2023-03-23T16:26:34;5.43;;;3.92;;
15114;SDS011;7658;51.456;7.622;2023-03-23T16:29:00;5.68;;;4.50;;
15114;SDS011;7658;51.456;7.622;2023-03-23T16:31:27;7.90;;;4.32;;
15114;SDS011;7658;51.456;7.622;2023-03-23T16:33:53;6.15;;;4.25;;
15114;SDS011;7658;51.456;7.622;2023-03-23T16:36:19;10.27;;;4.60;;
15114;SDS011;7658;51.456;7.622;2023-03-23T16:38:45;7.40;;;4.18;;
15114;SDS011;7658;51.456;7.622;2023-03-23T16:41:11;5.15;;;3.80;;
15114;SDS011;7658;51.456;7.622;2023-03-23T16:43:36;7.20;;;3.80;;
15114;SDS011;7658;51.456;7.622;2023-03-23T16:46:02;4.20;;;3.60;;
15114;SDS011;7658;51.456;7.622;2023-03-23T16:48:28;7.10;;;4.00;;
15114;SDS011;7658;51.456;7.622;2023-03-23T16:50:54;4.30;;;3.90;;
15114;SDS011;7658;51.456;7.622;2023-03-23T16:53:20;4.50;;;3.70;;
15114;SDS011;7658;51.456;7.622;2023-03-23T16:55:46;6.38;;;3.50;;
15114;SDS011;7658;51.456;7.622;2023-03-23T16:58:15;8.38;;;3.70;;
15114;SDS011;7658;51.456;7.622;2023-03-23T17:00:42;3.50;;;3.20;;
15114;SDS011;7658;51.456;7.622;2023-03-23T17:03:08;4.57;;;3.65;;
15114;SDS011;7658;51.456;7.622;2023-03-23T17:05:35;5.05;;;3.90;;
15114;SDS011;7658;51.456;7.622;2023-03-23T17:08:01;3.85;;;3.35;;
15114;SDS011;7658;51.456;7.622;2023-03-23T17:10:27;4.05;;;3.65;;
15114;SDS011;7658;51.456;7.622;2023-03-23T17:12:56;5.32;;;4.30;;
15114;SDS011;7658;51.456;7.622;2023-03-23T17:15:22;8.13;;;4.70;;
15114;SDS011;7658;51.456;7.622;2023-03-23T17:17:49;7.38;;;5.18;;
15114;SDS011;7658;51.456;7.622;2023-03-23T17:20:16;6.75;;;4.18;;
15114;SDS011;7658;51.456;7.622;2023-03-23T17:22:42;6.97;;;4.30;;
15114;SDS011;7658;51.456;7.622;2023-03-23T17:25:08;7.25;;;4.13;;
15114;SDS011;7658;51.456;7.622;2023-03-23T17:27:35;6.65;;;4.85;;
15114;SDS011;7658;51.456;7.622;2023-03-23T17:30:02;8.52;;;5.70;;
15114;SDS011;7658;51.456;7.622;2023-03-23T17:32:29;5.80;;;4.43;;
15114;SDS011;7658;51.456;7.622;2023-03-23T17:34:54;8.25;;;3.97;;
15114;SDS011;7658;51.456;7.622;2023-03-23T17:37:20;6.10;;;3.90;;